Terminal Aerodrome Forecast
Issued by NWS Wilmington, OH

Current Version | Previous Version | Graphics & Text | Print | Product List | Glossary On
Versions: 1 2 3 4 5 6 7 8 9 10 11 12 13 14 15 16 17 18 19 20 21 22 23 24 25
000
FTUS41 KILN 181452 AAA
TAFDAY
TAF AMD
KDAY 181452Z 1815/1912 08012KT P6SM -SHRA BKN025 OVC050
     FM181800 08013KT P6SM -SHRA OVC015
     FM182100 09011KT 5SM -SHRA OVC015
     FM190600 13007KT P6SM OVC025=

USA.gov is the U.S. government's official web portal to all federal, state and local government web resources and services.